createdAt,value
2022-10-08T00:00:50.615Z,95782.25
2022-10-08T00:03:18.598Z,95779.84
2022-10-08T00:05:58.231Z,95786.72
2022-10-08T00:08:25.623Z,95779.69
2022-10-08T00:10:54.122Z,95781.91
2022-10-08T00:13:22.002Z,95778.41
2022-10-08T00:15:48.648Z,95787.97
2022-10-08T00:18:15.537Z,95782.06
2022-10-08T00:20:43.893Z,95778.03
2022-10-08T00:23:10.471Z,95773.75
2022-10-08T00:25:44.615Z,95776.78
2022-10-08T00:28:12.821Z,95780.91
2022-10-08T00:30:40.293Z,95773.34
2022-10-08T00:33:08.092Z,95773.22
2022-10-08T00:35:38.796Z,95775.44
2022-10-08T00:38:05.899Z,95774.16
2022-10-08T00:40:32.381Z,95768.22
2022-10-08T00:43:00.246Z,95776.22
2022-10-08T00:45:26.979Z,95775.72
2022-10-08T00:47:54.092Z,95771.41
2022-10-08T00:50:26.215Z,95769.31
2022-10-08T00:52:58.282Z,95775.38
2022-10-08T00:55:26.749Z,95774.84
2022-10-08T00:57:56.410Z,95768.94
2022-10-08T01:00:25.174Z,95764.13
2022-10-08T01:02:52.869Z,95766.06
2022-10-08T01:05:28.040Z,95766.69
2022-10-08T01:08:04.779Z,95756.91
2022-10-08T01:10:53.363Z,95757.22
2022-10-08T01:13:37.888Z,95751.31
2022-10-08T01:16:23.924Z,95760.56
2022-10-08T01:18:53.331Z,95748.91
2022-10-08T01:21:51.783Z,95749.50
2022-10-08T01:24:32.991Z,95750.28
2022-10-08T01:27:06.577Z,95747.88
2022-10-08T01:29:45.912Z,95747.72
2022-10-08T01:32:26.122Z,95737.16
2022-10-08T01:35:00.485Z,95749.94
2022-10-08T01:37:34.406Z,95744.50
2022-10-08T01:40:05.645Z,95741.78
2022-10-08T01:42:35.269Z,95743.72
2022-10-08T01:45:06.316Z,95740.19
2022-10-08T01:47:37.545Z,95744.81
2022-10-08T01:50:16.113Z,95738.09
2022-10-08T01:52:54.685Z,95742.72
2022-10-08T01:55:34.736Z,95740.31
2022-10-08T01:58:09.501Z,95734.41
2022-10-08T02:00:38.493Z,95739.84
2022-10-08T02:03:05.179Z,95729.28
2022-10-08T02:05:35.505Z,95740.94
2022-10-08T02:08:02.344Z,95735.03
2022-10-08T02:10:28.877Z,95726.41
2022-10-08T02:12:58.700Z,95724.47
2022-10-08T02:15:37.017Z,95729.13
2022-10-08T02:18:14.994Z,95721.28
2022-10-08T02:20:52.861Z,95723.94
2022-10-08T02:23:34.818Z,95727.03
2022-10-08T02:26:05.829Z,95724.31
2022-10-08T02:28:49.832Z,95721.91
2022-10-08T02:31:29.503Z,95721.06
2022-10-08T02:34:01.164Z,95725.72
2022-10-08T02:36:32.504Z,95729.22
2022-10-08T02:39:02.603Z,95724.09
2022-10-08T02:41:34.487Z,95728.44
2022-10-08T02:44:05.633Z,95724.09
2022-10-08T02:46:37.653Z,95726.81
2022-10-08T02:49:09.220Z,95726.34
2022-10-08T02:51:42.445Z,95722.81
2022-10-08T02:54:09.593Z,95729.34
2022-10-08T02:56:46.663Z,95732.38
2022-10-08T02:59:14.730Z,95724.53
2022-10-08T03:01:48.900Z,95729.19
2022-10-08T03:04:23.340Z,95727.25
2022-10-08T03:06:52.272Z,95727.56
2022-10-08T03:09:20.947Z,95729.50
2022-10-08T03:11:48.545Z,95726.00
2022-10-08T03:14:18.188Z,95721.97
2022-10-08T03:16:46.810Z,95723.88
2022-10-08T03:19:16.484Z,95725.47
2022-10-08T03:21:44.684Z,95727.41
2022-10-08T03:24:13.040Z,95730.41
2022-10-08T03:26:40.071Z,95725.00
2022-10-08T03:29:08.372Z,95723.06
2022-10-08T03:31:35.742Z,95729.31
2022-10-08T03:34:02.325Z,95720.34
2022-10-08T03:36:29.733Z,95721.97
2022-10-08T03:38:56.257Z,95726.28
2022-10-08T03:41:22.794Z,95730.59
2022-10-08T03:43:49.375Z,95722.44
2022-10-08T03:46:16.083Z,95722.94
2022-10-08T03:48:43.214Z,95724.53
2022-10-08T03:51:14.077Z,95732.69
2022-10-08T03:53:42.463Z,95729.66
2022-10-08T03:56:12.398Z,95733.69
2022-10-08T03:58:39.483Z,95733.06
2022-10-08T04:01:10.589Z,95731.63
2022-10-08T04:03:37.493Z,95734.53
2022-10-08T04:06:04.586Z,95735.19
2022-10-08T04:08:31.180Z,95728.03
2022-10-08T04:10:57.709Z,95736.84
2022-10-08T04:13:24.232Z,95730.19
2022-10-08T04:15:50.817Z,95734.38
2022-10-08T04:18:17.906Z,95734.75
2022-10-08T04:20:45.046Z,95726.44
2022-10-08T04:23:11.586Z,95728.22
2022-10-08T04:25:38.175Z,95729.69
2022-10-08T04:28:05.825Z,95729.25
2022-10-08T04:30:32.823Z,95731.00
2022-10-08T04:32:59.393Z,95730.06
2022-10-08T04:35:26.199Z,95727.19
2022-10-08T04:37:52.661Z,95724.31
2022-10-08T04:40:19.163Z,95726.88
2022-10-08T04:42:50.919Z,95730.59
2022-10-08T04:45:17.689Z,95730.44
2022-10-08T04:47:44.265Z,95730.28
2022-10-08T04:50:10.850Z,95717.66
2022-10-08T04:52:37.420Z,95725.19
2022-10-08T04:55:04.139Z,95727.59
2022-10-08T04:57:31.688Z,95725.03
2022-10-08T05:00:17.049Z,95725.03
2022-10-08T05:02:45.947Z,95722.00
2022-10-08T05:05:12.772Z,95728.22
2022-10-08T05:07:39.262Z,95725.50
2022-10-08T05:10:06.274Z,95726.63
2022-10-08T05:12:32.756Z,95732.09
2022-10-08T05:14:59.262Z,95731.09
2022-10-08T05:17:25.819Z,95736.53
2022-10-08T05:19:52.302Z,95736.06
2022-10-08T05:22:18.901Z,95754.28
2022-10-08T05:24:45.410Z,95750.31
2022-10-08T05:27:11.956Z,95739.41
2022-10-08T05:29:38.539Z,95746.47
2022-10-08T05:32:04.995Z,95741.50
2022-10-08T05:34:31.553Z,95756.38
2022-10-08T05:36:58.093Z,95745.69
2022-10-08T05:39:24.629Z,95748.25
2022-10-08T05:41:51.066Z,95748.41
2022-10-08T05:44:17.635Z,95746.34
2022-10-08T05:46:44.140Z,95750.50
2022-10-08T05:49:18.100Z,95751.97
2022-10-08T05:51:44.569Z,95753.38
2022-10-08T05:54:11.321Z,95753.72
2022-10-08T05:56:37.912Z,95749.72
2022-10-08T05:59:04.602Z,95757.44
2022-10-08T06:01:32.820Z,95749.59
2022-10-08T06:04:04.326Z,95758.09
2022-10-08T06:06:35.688Z,95754.53
2022-10-08T06:09:02.253Z,95759.16
2022-10-08T06:11:31.045Z,95762.66
2022-10-08T06:13:59.158Z,95769.22
2022-10-08T06:16:26.038Z,95771.50
2022-10-08T06:18:52.932Z,95780.41
2022-10-08T06:21:22.334Z,95780.09
2022-10-08T06:23:54.176Z,95785.50
2022-10-08T06:26:22.690Z,95784.34
2022-10-08T06:28:49.522Z,95784.31
2022-10-08T06:31:17.810Z,95778.03
2022-10-08T06:33:44.634Z,95784.25
2022-10-08T06:36:15.957Z,95781.00
2022-10-08T06:38:42.725Z,95783.72
2022-10-08T06:41:09.333Z,95780.16
2022-10-08T06:43:35.909Z,95786.66
2022-10-08T06:46:06.257Z,95791.97
2022-10-08T06:48:33.332Z,95785.66
2022-10-08T06:51:04.708Z,95793.31
2022-10-08T06:53:31.879Z,95800.19
2022-10-08T06:55:59.792Z,95793.72
2022-10-08T06:58:26.851Z,95801.38
2022-10-08T07:01:10.237Z,95798.91
2022-10-08T07:03:37.565Z,95804.19
2022-10-08T07:06:09.942Z,95802.03
2022-10-08T07:08:36.804Z,95805.41
2022-10-08T07:11:11.950Z,95809.38
2022-10-08T07:13:39.500Z,95812.59
2022-10-08T07:16:09.074Z,95815.00
2022-10-08T07:18:36.990Z,95813.50
2022-10-08T07:21:04.281Z,95822.97
2022-10-08T07:23:31.387Z,95820.38
2022-10-08T07:26:11.147Z,95833.03
2022-10-08T07:28:43.937Z,95825.13
2022-10-08T07:31:15.899Z,95831.69
2022-10-08T07:33:42.497Z,95829.31
2022-10-08T07:36:14.778Z,95842.56
2022-10-08T07:38:41.931Z,95834.75
2022-10-08T07:41:09.888Z,95832.38
2022-10-08T07:43:37.183Z,95837.09
2022-10-08T07:46:06.482Z,95842.13
2022-10-08T07:48:34.407Z,95839.41
2022-10-08T07:51:14.971Z,95842.50
2022-10-08T07:53:41.638Z,95846.06
2022-10-08T07:56:09.993Z,95839.34
2022-10-08T07:58:37.124Z,95844.34
2022-10-08T08:01:06.203Z,95846.22
2022-10-08T08:03:33.403Z,95845.28
2022-10-08T08:06:09.326Z,95852.91
2022-10-08T08:08:37.859Z,95853.94
2022-10-08T08:11:06.591Z,95844.00
2022-10-08T08:13:37.056Z,95846.94
2022-10-08T08:16:07.655Z,95842.94
2022-10-08T08:18:36.862Z,95841.66
2022-10-08T08:21:09.848Z,95841.97
2022-10-08T08:23:39.078Z,95848.56
2022-10-08T08:26:15.052Z,95841.81
2022-10-08T08:28:42.120Z,95839.69
2022-10-08T08:31:17.473Z,95848.94
2022-10-08T08:33:48.351Z,95842.59
2022-10-08T08:36:14.827Z,95842.00
2022-10-08T08:38:41.318Z,95841.81
2022-10-08T08:41:22.557Z,95844.31
2022-10-08T08:43:56.868Z,95851.59
2022-10-08T08:46:24.095Z,95844.69
2022-10-08T08:48:53.277Z,95852.31
2022-10-08T08:51:19.772Z,95846.09
2022-10-08T08:53:46.345Z,95847.44
2022-10-08T08:56:16.404Z,95853.44
2022-10-08T08:59:09.780Z,95852.41
2022-10-08T09:01:43.030Z,95845.09
2022-10-08T09:04:45.331Z,95848.34
2022-10-08T09:07:17.004Z,95842.56
2022-10-08T09:09:52.839Z,95858.44
2022-10-08T09:12:22.298Z,95850.34
2022-10-08T09:14:57.801Z,95858.31
2022-10-08T09:17:35.459Z,95854.16
2022-10-08T09:20:02.328Z,95851.16
2022-10-08T09:22:31.796Z,95853.34
2022-10-08T09:25:01.160Z,95856.69
2022-10-08T09:27:51.550Z,95853.28
2022-10-08T09:30:26.920Z,95849.53
2022-10-08T09:32:55.188Z,95854.88
2022-10-08T09:35:22.672Z,95859.38
2022-10-08T09:37:50.271Z,95854.72
2022-10-08T09:40:26.088Z,95859.13
2022-10-08T09:43:11.558Z,95857.69
2022-10-08T09:45:46.818Z,95851.16
2022-10-08T09:48:19.205Z,95844.59
2022-10-08T09:50:58.578Z,95835.25
2022-10-08T09:53:28.912Z,95829.53
2022-10-08T09:56:01.595Z,95824.59
2022-10-08T09:58:32.125Z,95831.34
2022-10-08T10:01:12.234Z,95835.13
2022-10-08T10:03:40.293Z,95828.94
2022-10-08T10:06:06.748Z,95833.22
2022-10-08T10:08:43.983Z,95829.59
2022-10-08T10:11:14.503Z,95823.81
2022-10-08T10:13:41.190Z,95823.59
2022-10-08T10:16:17.140Z,95822.53
2022-10-08T10:19:04.838Z,95832.13
2022-10-08T10:21:54.746Z,95824.34
2022-10-08T10:24:26.947Z,95826.03
2022-10-08T10:26:59.097Z,95825.34
2022-10-08T10:29:29.218Z,95824.66
2022-10-08T10:32:08.745Z,95827.13
2022-10-08T10:34:39.756Z,95813.41
2022-10-08T10:37:12.742Z,95812.81
2022-10-08T10:39:53.271Z,95816.06
2022-10-08T10:42:50.629Z,95803.56
2022-10-08T10:45:20.648Z,95809.44
2022-10-08T10:47:49.002Z,95808.06
2022-10-08T10:50:16.378Z,95814.84
2022-10-08T10:53:04.286Z,95807.72
2022-10-08T10:55:33.523Z,95813.66
2022-10-08T10:58:08.583Z,95812.06
2022-10-08T11:00:57.942Z,95804.56
2022-10-08T11:04:08.995Z,95816.44
2022-10-08T11:07:00.114Z,95815.19
2022-10-08T11:09:37.811Z,95803.63
2022-10-08T11:12:25.846Z,95808.66
2022-10-08T11:15:05.246Z,95800.31
2022-10-08T11:17:50.519Z,95799.09
2022-10-08T11:20:38.373Z,95803.75
2022-10-08T11:23:11.442Z,95801.59
2022-10-08T11:26:10.745Z,95796.63
2022-10-08T11:29:00.518Z,95803.69
2022-10-08T11:31:41.254Z,95805.31
2022-10-08T11:34:27.010Z,95799.78
2022-10-08T11:36:59.103Z,95797.38
2022-10-08T11:39:40.277Z,95798.84
2022-10-08T11:42:10.987Z,95806.63
2022-10-08T11:44:37.660Z,95807.75
2022-10-08T11:47:38.279Z,95811.16
2022-10-08T11:50:05.709Z,95817.81
2022-10-08T11:52:33.833Z,95814.59
2022-10-08T11:55:00.871Z,95805.44
2022-10-08T11:57:43.742Z,95805.81
2022-10-08T12:00:34.642Z,95800.16
2022-10-08T12:03:04.369Z,95806.72
2022-10-08T12:05:46.697Z,95797.09
2022-10-08T12:08:55.643Z,95791.34
2022-10-08T12:11:34.382Z,95783.28
2022-10-08T12:14:12.979Z,95783.53
2022-10-08T12:16:48.715Z,95790.16
2022-10-08T12:19:42.010Z,95797.53
2022-10-08T12:22:14.194Z,95785.31
2022-10-08T12:24:40.689Z,95787.63
2022-10-08T12:27:16.219Z,95793.50
2022-10-08T12:29:54.792Z,95787.13
2022-10-08T12:32:24.350Z,95783.56
2022-10-08T12:34:51.896Z,95786.69
2022-10-08T12:37:43.241Z,95789.38
2022-10-08T12:40:23.144Z,95788.16
2022-10-08T12:42:52.939Z,95783.03
2022-10-08T12:45:26.244Z,95778.69
2022-10-08T12:48:14.982Z,95782.47
2022-10-08T12:50:52.950Z,95782.00
2022-10-08T12:53:19.456Z,95786.81
2022-10-08T12:55:50.989Z,95786.16
2022-10-08T12:58:25.327Z,95787.69
2022-10-08T13:00:56.700Z,95789.56
2022-10-08T13:03:23.422Z,95781.97
2022-10-08T13:05:50.076Z,95792.91
2022-10-08T13:08:36.871Z,95775.44
2022-10-08T13:11:08.097Z,95781.31
2022-10-08T13:13:40.687Z,95785.13
2022-10-08T13:16:18.967Z,95789.41
2022-10-08T13:18:51.355Z,95777.59
2022-10-08T13:21:31.039Z,95778.41
2022-10-08T13:23:58.980Z,95780.78
2022-10-08T13:26:43.748Z,95787.09
2022-10-08T13:29:22.430Z,95792.97
2022-10-08T13:32:05.065Z,95792.97
2022-10-08T13:34:34.296Z,95791.72
2022-10-08T13:37:04.628Z,95788.44
2022-10-08T13:40:02.923Z,95791.91
2022-10-08T13:42:51.031Z,95791.72
2022-10-08T13:45:22.513Z,95799.94
2022-10-08T13:47:50.094Z,95798.28
2022-10-08T13:50:17.179Z,95800.34
2022-10-08T13:52:46.723Z,95795.72
2022-10-08T13:55:34.210Z,95807.44
2022-10-08T13:58:02.963Z,95804.69
2022-10-08T14:00:31.610Z,95806.28
2022-10-08T14:02:58.211Z,95805.03
2022-10-08T14:05:27.229Z,95799.13
2022-10-08T14:07:58.576Z,95802.56
2022-10-08T14:10:25.435Z,95799.41
2022-10-08T14:12:51.948Z,95797.38
2022-10-08T14:15:19.030Z,95800.03
2022-10-08T14:17:45.818Z,95796.81
2022-10-08T14:20:12.760Z,95799.94
2022-10-08T14:22:39.349Z,95806.97
2022-10-08T14:25:18.441Z,95799.84
2022-10-08T14:27:46.451Z,95805.34
2022-10-08T14:30:13.866Z,95809.25
2022-10-08T14:32:40.373Z,95807.59
2022-10-08T14:35:07.079Z,95811.91
2022-10-08T14:37:36.829Z,95815.38
2022-10-08T14:40:08.743Z,95814.88
2022-10-08T14:42:35.282Z,95816.28
2022-10-08T14:45:01.900Z,95812.59
2022-10-08T14:47:28.500Z,95817.94
2022-10-08T14:49:55.024Z,95820.94
2022-10-08T14:52:21.557Z,95830.69
2022-10-08T14:54:48.021Z,95829.34
2022-10-08T14:57:14.620Z,95829.97
2022-10-08T14:59:41.084Z,95824.41
2022-10-08T15:02:10.321Z,95825.91
2022-10-08T15:04:36.888Z,95825.00
2022-10-08T15:07:03.469Z,95829.63
2022-10-08T15:09:29.916Z,95829.50
2022-10-08T15:11:56.398Z,95829.06
2022-10-08T15:14:22.955Z,95839.59
2022-10-08T15:16:50.341Z,95838.00
2022-10-08T15:19:19.855Z,95846.56
2022-10-08T15:21:49.870Z,95843.38
2022-10-08T15:24:16.389Z,95839.75
2022-10-08T15:26:42.824Z,95841.16
2022-10-08T15:29:09.318Z,95849.19
2022-10-08T15:31:35.863Z,95851.72
2022-10-08T15:34:02.444Z,95848.09
2022-10-08T15:36:36.411Z,95854.06
2022-10-08T15:39:08.656Z,95863.31
2022-10-08T15:41:37.340Z,95862.31
2022-10-08T15:44:09.507Z,95864.38
2022-10-08T15:46:36.857Z,95861.41
2022-10-08T15:49:04.094Z,95868.63
2022-10-08T15:51:30.965Z,95866.13
2022-10-08T15:54:00.896Z,95875.38
2022-10-08T15:56:28.248Z,95882.25
2022-10-08T15:58:54.806Z,95881.69
2022-10-08T16:01:23.618Z,95887.41
2022-10-08T16:03:53.010Z,95887.28
2022-10-08T16:06:39.993Z,95882.81
2022-10-08T16:09:06.456Z,95878.41
2022-10-08T16:11:34.735Z,95886.13
2022-10-08T16:14:07.712Z,95886.03
2022-10-08T16:16:35.256Z,95883.63
2022-10-08T16:19:04.903Z,95894.13
2022-10-08T16:21:33.424Z,95888.66
2022-10-08T16:24:01.045Z,95889.00
2022-10-08T16:26:28.604Z,95894.47
2022-10-08T16:28:57.770Z,95903.03
2022-10-08T16:31:28.125Z,95906.22
2022-10-08T16:34:00.394Z,95906.56
2022-10-08T16:36:28.235Z,95910.09
2022-10-08T16:38:55.725Z,95918.78
2022-10-08T16:41:24.952Z,95918.78
2022-10-08T16:43:53.099Z,95919.22
2022-10-08T16:46:20.825Z,95924.00
2022-10-08T16:48:55.786Z,95928.59
2022-10-08T16:51:23.964Z,95929.84
2022-10-08T16:53:51.717Z,95924.84
2022-10-08T16:56:18.862Z,95932.94
2022-10-08T16:58:45.464Z,95939.19
2022-10-08T17:01:11.971Z,95943.88
2022-10-08T17:03:38.632Z,95938.41
2022-10-08T17:06:05.541Z,95941.16
2022-10-08T17:08:32.146Z,95953.22
2022-10-08T17:11:03.096Z,95952.44
2022-10-08T17:13:29.637Z,95959.53
2022-10-08T17:16:04.687Z,95957.91
2022-10-08T17:18:31.278Z,95963.41
2022-10-08T17:20:58.872Z,95971.63
2022-10-08T17:23:27.429Z,95974.69
2022-10-08T17:25:58.345Z,95975.03
2022-10-08T17:28:30.125Z,95983.59
2022-10-08T17:30:57.801Z,95983.91
2022-10-08T17:33:31.058Z,95994.09
2022-10-08T17:36:06.908Z,95995.88
2022-10-08T17:38:34.804Z,95991.09
2022-10-08T17:41:08.520Z,95995.63
2022-10-08T17:43:35.039Z,96002.56
2022-10-08T17:46:10.385Z,96005.53
2022-10-08T17:48:37.232Z,96009.72
2022-10-08T17:51:05.170Z,96019.44
2022-10-08T17:53:32.260Z,96020.44
2022-10-08T17:56:03.839Z,96028.66
2022-10-08T17:58:30.829Z,96022.22
2022-10-08T18:01:08.374Z,96032.72
2022-10-08T18:03:36.982Z,96025.63
2022-10-08T18:06:03.842Z,96027.56
2022-10-08T18:08:30.633Z,96034.19
2022-10-08T18:10:57.137Z,96029.84
2022-10-08T18:13:23.617Z,96023.56
2022-10-08T18:15:50.179Z,96031.78
2022-10-08T18:18:16.724Z,96039.53
2022-10-08T18:20:52.713Z,96042.16
2022-10-08T18:23:19.237Z,96042.47
2022-10-08T18:25:46.519Z,96042.47
2022-10-08T18:28:15.257Z,96047.47
2022-10-08T18:30:41.907Z,96056.03
2022-10-08T18:33:08.488Z,96052.47
2022-10-08T18:35:35.069Z,96055.22
2022-10-08T18:38:01.571Z,96061.03
2022-10-08T18:40:29.979Z,96064.56
2022-10-08T18:42:56.674Z,96066.81
2022-10-08T18:45:23.294Z,96061.34
2022-10-08T18:47:49.857Z,96067.97
2022-10-08T18:50:16.391Z,96071.84
2022-10-08T18:52:42.855Z,96073.78
2022-10-08T18:55:09.672Z,96082.31
2022-10-08T18:57:36.144Z,96088.91
2022-10-08T19:00:03.479Z,96091.66
2022-10-08T19:02:30.090Z,96096.66
2022-10-08T19:04:56.663Z,96102.13
2022-10-08T19:07:23.409Z,96107.94
2022-10-08T19:09:49.899Z,96100.84
2022-10-08T19:12:16.372Z,96112.59
2022-10-08T19:14:42.909Z,96103.94
2022-10-08T19:17:09.499Z,96114.88
2022-10-08T19:19:35.982Z,96120.34
2022-10-08T19:22:02.460Z,96122.28
2022-10-08T19:24:29.212Z,96129.69
2022-10-08T19:26:55.977Z,96128.09
2022-10-08T19:29:27.872Z,96127.28
2022-10-08T19:31:55.559Z,96138.56
2022-10-08T19:34:25.469Z,96146.28
2022-10-08T19:36:52.731Z,96149.00
2022-10-08T19:39:26.949Z,96151.28
2022-10-08T19:41:53.973Z,96154.03
2022-10-08T19:44:21.249Z,96157.41
2022-10-08T19:46:48.294Z,96153.06
2022-10-08T19:49:15.173Z,96162.44
2022-10-08T19:51:42.208Z,96167.41
2022-10-08T19:54:08.709Z,96177.56
2022-10-08T19:56:35.688Z,96182.22
2022-10-08T19:59:02.255Z,96177.09
2022-10-08T20:01:32.053Z,96182.88
2022-10-08T20:04:00.410Z,96184.00
2022-10-08T20:06:29.718Z,96190.28
2022-10-08T20:08:59.390Z,96186.28
2022-10-08T20:11:26.577Z,96186.28
2022-10-08T20:13:53.811Z,96183.06
2022-10-08T20:16:26.683Z,96194.34
2022-10-08T20:18:55.720Z,96196.25
2022-10-08T20:21:22.541Z,96198.53
2022-10-08T20:23:49.234Z,96195.31
2022-10-08T20:26:22.075Z,96202.56
2022-10-08T20:28:51.697Z,96211.41
2022-10-08T20:31:22.050Z,96220.91
2022-10-08T20:33:54.361Z,96215.31
2022-10-08T20:36:20.862Z,96212.28
2022-10-08T20:38:47.419Z,96214.03
2022-10-08T20:41:13.905Z,96216.13
2022-10-08T20:43:40.686Z,96221.44
2022-10-08T20:46:10.517Z,96221.16
2022-10-08T20:48:39.516Z,96222.44
2022-10-08T20:51:18.495Z,96218.25
2022-10-08T20:54:14.664Z,96216.03
2022-10-08T20:56:42.426Z,96221.94
2022-10-08T20:59:13.559Z,96223.25
2022-10-08T21:01:40.141Z,96215.53
2022-10-08T21:04:07.760Z,96220.38
2022-10-08T21:06:45.796Z,96232.09
2022-10-08T21:09:12.589Z,96229.50
2022-10-08T21:11:41.487Z,96227.56
2022-10-08T21:14:09.702Z,96221.16
2022-10-08T21:16:39.031Z,96226.75
2022-10-08T21:19:09.770Z,96232.69
2022-10-08T21:21:36.291Z,96231.22
2022-10-08T21:24:02.967Z,96232.19
2022-10-08T21:26:32.188Z,96240.81
2022-10-08T21:29:01.294Z,96233.41
2022-10-08T21:31:30.494Z,96240.94
2022-10-08T21:33:58.182Z,96243.31
2022-10-08T21:36:37.429Z,96239.44
2022-10-08T21:39:06.706Z,96245.03
2022-10-08T21:41:35.741Z,96250.63
2022-10-08T21:44:05.070Z,96257.03
2022-10-08T21:46:33.622Z,96260.69
2022-10-08T21:49:02.791Z,96259.69
2022-10-08T21:51:30.741Z,96266.59
2022-10-08T21:53:59.390Z,96262.88
2022-10-08T21:56:28.299Z,96260.47
2022-10-08T21:58:57.592Z,96252.59
2022-10-08T22:01:28.457Z,96265.75
2022-10-08T22:04:22.399Z,96262.34
2022-10-08T22:06:51.376Z,96257.69
2022-10-08T22:09:24.312Z,96271.66
2022-10-08T22:11:52.021Z,96270.03
2022-10-08T22:14:18.798Z,96271.44
2022-10-08T22:16:45.943Z,96259.75
2022-10-08T22:19:13.593Z,96262.28
2022-10-08T22:21:40.304Z,96255.53
2022-10-08T22:24:07.384Z,96257.78
2022-10-08T22:26:39.762Z,96252.94
2022-10-08T22:29:07.694Z,96253.56
2022-10-08T22:31:35.062Z,96247.94
2022-10-08T22:34:01.777Z,96253.19
2022-10-08T22:36:31.081Z,96247.88
2022-10-08T22:38:58.413Z,96255.06
2022-10-08T22:41:30.474Z,96247.81
2022-10-08T22:43:58.075Z,96255.78
2022-10-08T22:46:27.415Z,96248.25
2022-10-08T22:48:59.243Z,96253.19
2022-10-08T22:51:26.367Z,96251.91
2022-10-08T22:53:53.450Z,96251.66
2022-10-08T22:56:23.033Z,96254.41
2022-10-08T22:58:50.673Z,96249.25
2022-10-08T23:01:20.171Z,96251.19
2022-10-08T23:03:47.649Z,96238.66
2022-10-08T23:06:20.560Z,96231.13
2022-10-08T23:08:52.176Z,96241.53
2022-10-08T23:11:18.645Z,96238.31
2022-10-08T23:13:45.136Z,96234.28
2022-10-08T23:16:14.252Z,96234.09
2022-10-08T23:18:42.931Z,96233.09
2022-10-08T23:21:15.701Z,96238.66
2022-10-08T23:23:47.068Z,96244.72
2022-10-08T23:26:14.622Z,96243.75
2022-10-08T23:28:41.683Z,96246.56
2022-10-08T23:31:09.889Z,96251.50
2022-10-08T23:33:37.483Z,96249.31
2022-10-08T23:36:08.118Z,96242.97
2022-10-08T23:38:35.750Z,96236.69
2022-10-08T23:41:03.926Z,96245.69
2022-10-08T23:43:33.794Z,96234.22
2022-10-08T23:46:00.293Z,96239.53
2022-10-08T23:48:26.904Z,96242.56
2022-10-08T23:50:54.130Z,96247.81
2022-10-08T23:53:21.503Z,96240.56
2022-10-08T23:55:48.376Z,96237.97
2022-10-08T23:58:15.833Z,96236.94
